Latest Weather Observations for Cape Borda

IDS60801

Issued at 2:01 am CDT Wednesday 19 February 2020 (issued every 10 minutes, with the page automatically refreshed every 10 minutes)

About weather observations | Map of weather stations | Latest weather observations for SA | Other Formats
Station Details ID: 022823 Name: CAPE BORDA Lat: -35.75 Lon: 136.60 Height: 158.0 m
Data from the previous 72 hours. | See also: Recent months at Cape Borda
Date/Time
CDT
Temp
°C
App
Temp
°C
Dew
Point
°C
Rel
Hum
%
Delta-T
°C
Wind Press
QNH
hPa
Press
MSL
hPa
Rain since
9am
mm
Dir  Spd
km/h
Gust
km/h
Spd
kts
Gust
kts
19/02:00am 14.4 9.5 10.0 75 2.3 S 26 37 14 20 1018.7 - 1.0
19/01:30am 14.3 10.9 10.5 78 2.0 S 19 26 10 14 1019.2 - 1.0
19/01:00am 14.5 10.7 9.9 74 2.4 S 20 30 11 16 1019.4 - 1.0
19/12:30am 14.5 11.0 10.3 76 2.2 S 19 30 10 16 1019.6 - 1.0
19/12:00am 14.5 9.5 11.1 80 1.8 S 28 39 15 21 1019.2 1018.9 1.0
 
Date/Time
CDT
Temp
°C
App
Temp
°C
Dew
Point
°C
Rel
Hum
%
Delta-T
°C
Wind Press
QNH
hPa
Press
MSL
hPa
Rain since
9am
mm
Dir  Spd
km/h
Gust
km/h
Spd
kts
Gust
kts
18/11:30pm 14.8 10.3 10.2 74 2.4 S 24 33 13 18 1019.5 - 1.0
18/11:00pm 14.6 10.2 10.4 76 2.2 S 24 33 13 18 1019.6 - 1.0
18/10:30pm 14.7 9.5 10.3 75 2.3 S 28 35 15 19 1019.6 - 1.0
18/10:00pm 14.6 9.3 9.8 73 2.5 S 28 35 15 19 1019.5 - 1.0
18/09:30pm 14.5 9.7 8.9 69 2.9 S 24 37 13 20 1019.3 - 1.0
18/09:00pm 14.8 8.3 10.2 74 2.4 S 35 46 19 25 1018.9 1018.6 1.0
18/08:30pm 15.1 8.9 9.9 71 2.7 S 33 46 18 25 1018.7 - 1.0
18/08:00pm 15.3 9.7 10.1 71 2.7 S 30 44 16 24 1018.9 - 1.0
18/07:39pm 15.5 9.5 8.5 63 3.6 S 30 48 16 26 1019.0 - 1.0
18/07:30pm 15.4 7.6 8.2 62 3.7 S 39 48 21 26 1018.7 - 1.0
18/07:00pm 16.2 9.0 9.2 63 3.6 S 37 54 20 29 1018.5 - 1.0
18/06:33pm 16.6 9.6 8.3 58 4.3 S 35 54 19 29 1018.1 - 1.0
18/06:30pm 16.2 8.6 7.7 57 4.3 S 37 54 20 29 1018.0 - 1.0
18/06:00pm 16.5 9.2 10.1 66 3.4 S 39 56 21 30 1017.8 1017.5 1.0
18/05:43pm 16.7 9.1 9.1 61 4.0 S 39 57 21 31 1017.7 - 1.0
18/05:30pm 16.9 9.9 11.2 69 3.1 S 39 54 21 29 1017.6 - 1.0
18/05:00pm 16.6 9.3 10.2 66 3.4 S 39 54 21 29 1017.5 - 1.0
18/04:30pm 17.8 10.7 9.4 58 4.4 S 37 57 20 31 1017.5 - 1.0
18/04:21pm 17.4 10.2 9.3 59 4.3 S 37 57 20 31 1017.3 - 1.0
18/04:00pm 18.9 11.5 9.7 55 4.9 SSW 39 54 21 29 1017.4 - 1.0
18/03:30pm 18.1 11.4 9.5 57 4.6 S 35 54 19 29 1017.4 - 1.0
18/03:00pm 18.4 10.5 9.5 56 4.7 S 41 59 22 32 1017.1 1016.8 1.0
18/02:30pm 17.1 8.8 10.2 64 3.7 S 44 63 24 34 1016.9 - 1.0
18/02:03pm 17.4 9.6 11.0 66 3.5 S 43 61 23 33 1017.0 - 1.0
18/02:00pm 17.9 9.8 11.9 68 3.3 SSW 46 61 25 33 1016.9 - 1.0
18/01:30pm 16.8 8.9 11.5 71 2.9 S 44 63 24 34 1016.8 - 1.0
18/01:02pm 15.3 9.2 14.0 92 0.7 S 39 59 21 32 1016.8 - 1.0
18/01:00pm 15.0 8.9 14.2 95 0.5 S 39 54 21 29 1016.9 - 1.0
18/12:30pm 15.3 8.3 14.3 94 0.6 SSW 44 63 24 34 1017.0 - 1.0
18/12:00pm 15.9 9.6 13.6 86 1.3 SSW 39 57 21 31 1017.4 1017.1 1.0
18/11:59am 16.2 10.1 14.2 88 1.1 SSW 39 57 21 31 1017.4 - 1.0
18/11:30am 16.2 10.6 14.4 89 1.0 SSW 37 52 20 28 1017.2 - 1.0
18/11:00am 16.0 9.7 14.5 91 0.9 SSW 41 56 22 30 1017.0 - 1.0
18/10:30am 15.2 8.8 14.4 95 0.5 SSW 41 57 22 31 1016.5 - 0.8
18/10:12am 14.8 - 15.0 - - SSW 35 54 19 29 1016.4 - 0.6
18/10:00am 14.6 - 14.9 - - SSW 41 54 22 29 1016.3 - 0.6
18/09:36am 14.7 8.4 14.7 100 0.0 SSW 41 61 22 33 1015.9 - 0.0
18/09:30am 14.7 - 15.0 - - SSW 41 54 22 29 1015.9 - 0.0
18/09:18am 14.7 - 14.9 - - SSW 41 59 22 32 1015.6 - 0.0
18/09:00am 14.8 7.9 14.5 98 0.2 SSW 44 61 24 33 1015.3 1014.9 0.8
18/08:32am 15.1 8.3 14.3 95 0.5 SSW 43 61 23 33 1014.7 - 0.8
18/08:30am 15.2 8.3 14.4 95 0.5 SSW 44 61 24 33 1014.6 - 0.8
18/08:05am 14.9 7.8 14.1 95 0.5 SSW 44 63 24 34 1014.0 - 0.8
18/08:00am 15.0 7.6 14.2 95 0.5 SSW 46 63 25 34 1013.9 - 0.8
18/07:44am 15.0 7.7 14.5 97 0.3 SSW 46 67 25 36 1013.7 - 0.8
18/07:30am 14.9 8.0 14.4 97 0.3 SSW 44 61 24 33 1013.6 - 0.8
18/07:00am 14.6 7.5 14.0 96 0.3 SSW 44 63 24 34 1013.1 - 0.6
18/06:52am 15.0 7.9 14.0 94 0.6 SSW 44 63 24 34 1012.9 - 0.6
18/06:30am 15.1 7.8 14.5 96 0.3 SSW 46 63 25 34 1012.5 - 0.6
18/06:00am 14.9 - 15.1 - - SSW 44 65 24 35 1012.3 1012.0 0.4
18/05:30am 15.1 7.6 15.1 100 0.0 SSW 48 67 26 36 1011.8 - 0.4
18/05:00am 15.5 8.9 15.3 99 0.1 SW 44 65 24 35 1011.7 - 0.4
18/04:34am 15.7 9.3 15.4 98 0.2 SSW 43 61 23 33 1011.4 - 0.4
18/04:30am 15.9 9.3 15.4 97 0.3 SSW 44 61 24 33 1011.3 - 0.4
18/04:09am 15.8 9.4 15.3 97 0.3 SSW 43 61 23 33 1011.2 - 0.4
18/04:00am 15.9 10.1 15.9 100 0.0 SW 41 57 22 31 1011.3 - 0.4
18/03:46am 15.8 - 16.0 - - SW 43 61 23 33 1011.2 - 0.4
18/03:41am 15.8 - 16.0 - - SW 48 61 26 33 1011.1 - 0.4
18/03:31am 16.2 - 16.4 - - WSW 28 57 15 31 1011.2 - 0.2
18/03:30am 16.5 - 16.8 - - WSW 24 41 13 22 1011.3 - 0.2
18/03:00am 16.7 14.8 15.7 94 0.6 WSW 20 26 11 14 1011.4 1011.1 0.0
18/02:30am 16.1 14.5 15.1 94 0.6 SW 17 22 9 12 1011.7 - 0.0
18/02:00am 16.3 13.4 15.2 93 0.6 SW 24 33 13 18 1011.7 - 0.0
18/01:30am 16.5 12.8 14.9 90 0.9 SW 28 39 15 21 1012.2 - 0.0
18/01:00am 16.0 13.7 14.7 92 0.8 SSW 20 28 11 15 1011.7 - 0.0
18/12:30am 15.8 13.3 15.2 96 0.3 SSW 22 30 12 16 1011.7 - 0.0
18/12:00am 15.6 13.5 15.1 97 0.3 S 20 28 11 15 1011.8 1011.5 0.0
 
Date/Time
CDT
Temp
°C
App
Temp
°C
Dew
Point
°C
Rel
Hum
%
Delta-T
°C
Wind Press
QNH
hPa
Press
MSL
hPa
Rain since
9am
mm
Dir  Spd
km/h
Gust
km/h
Spd
kts
Gust
kts
17/11:30pm 15.8 13.4 15.3 97 0.3 SSE 22 30 12 16 1011.9 - 0.0
17/11:00pm 16.2 13.6 15.9 98 0.2 S 24 32 13 17 1012.2 - 0.0
17/10:30pm 16.3 13.1 15.3 94 0.6 S 26 32 14 17 1012.1 - 0.0
17/10:00pm 17.1 14.4 12.8 76 2.4 SE 19 20 10 11 1011.6 - 0.0
17/09:30pm 17.7 15.0 13.0 74 2.7 SE 19 20 10 11 1011.3 - 0.0
17/09:00pm 18.3 15.6 13.6 74 2.7 SE 20 26 11 14 1010.7 1010.3 0.0
17/08:30pm 19.2 16.2 13.8 71 3.1 SSE 22 28 12 15 1010.6 - 0.0
17/08:00pm 19.9 17.5 14.3 70 3.3 SE 20 26 11 14 1010.7 - 0.0
17/07:30pm 19.8 14.9 12.6 63 4.1 SSE 30 35 16 19 1010.1 - 0.0
17/07:00pm 20.7 18.3 15.3 71 3.2 SW 22 32 12 17 1010.8 - 0.0
17/06:30pm 24.6 22.0 10.8 42 7.8 E 15 19 8 10 1009.7 - 0.0
17/06:00pm 23.8 22.7 12.1 48 6.7 SE 9 13 5 7 1010.9 1010.6 0.0
17/05:30pm 23.0 20.3 11.7 49 6.4 ESE 17 22 9 12 1010.4 - 0.0
17/05:00pm 22.8 19.9 13.0 54 5.7 SE 20 26 11 14 1010.8 - 0.0
17/04:30pm 21.1 19.1 15.4 70 3.4 SSW 20 26 11 14 1012.0 - 0.0
17/04:00pm 21.5 19.1 14.4 64 4.2 SSW 20 30 11 16 1012.0 - 0.0
17/03:30pm 20.5 18.4 15.3 72 3.1 SW 20 26 11 14 1012.6 - 0.0
17/03:00pm 20.9 19.4 15.4 71 3.3 W 17 22 9 12 1013.0 1012.7 0.0
17/02:30pm 20.6 19.7 14.9 70 3.4 N 13 17 7 9 1012.5 - 0.0
17/02:00pm 20.9 19.7 15.0 69 3.5 N 15 20 8 11 1012.6 - 0.0
17/01:30pm 21.5 19.6 15.3 68 3.7 N 19 26 10 14 1012.7 - 0.0
17/01:00pm 20.5 18.2 14.6 69 3.5 NNE 20 28 11 15 1012.8 - 0.0
17/12:30pm 19.6 18.1 14.2 71 3.1 N 15 17 8 9 1013.5 - 0.0
17/12:00pm 19.2 18.0 14.0 72 3.0 N 13 17 7 9 1013.8 1013.5 0.0
17/11:30am 19.5 18.7 14.1 71 3.1 N 11 15 6 8 1013.5 - 0.0
17/11:00am 19.7 18.5 13.9 69 3.4 N 13 17 7 9 1013.7 - 0.0
17/10:30am 18.8 18.2 13.4 71 3.1 N 9 13 5 7 1013.5 - 0.0
17/10:00am 18.6 17.8 12.8 69 3.3 N 9 13 5 7 1013.6 - 0.0
17/09:30am 19.4 17.9 10.4 56 4.9 SSE 9 13 5 7 1013.3 - 0.0
17/09:00am 17.9 17.3 11.7 67 3.4 SE 6 9 3 5 1013.5 1013.2 0.0
17/08:30am 17.1 16.1 12.4 74 2.6 E 9 11 5 6 1013.4 - 0.0
17/08:00am 15.5 14.3 12.8 84 1.5 ESE 11 15 6 8 1013.4 - 0.0
17/07:30am 13.8 12.9 12.5 92 0.7 ESE 9 13 5 7 1013.4 - 0.0
17/07:00am 13.1 10.9 12.0 93 0.6 ESE 15 19 8 10 1012.7 - 0.0
17/06:30am 13.2 10.7 12.3 94 0.5 ESE 17 20 9 11 1012.5 - 0.0
17/06:00am 13.0 10.8 12.1 94 0.5 ESE 15 17 8 9 1012.6 1012.3 0.0
17/05:30am 12.9 10.6 11.8 93 0.6 ESE 15 19 8 10 1012.6 - 0.0
17/05:00am 13.1 10.9 12.0 93 0.6 ESE 15 17 8 9 1012.7 - 0.0
17/04:30am 13.3 11.0 11.9 91 0.8 ESE 15 17 8 9 1012.9 - 0.0
17/04:00am 13.3 11.4 11.7 90 0.9 ESE 13 17 7 9 1012.7 - 0.0
17/03:30am 13.4 11.4 11.6 89 1.0 ESE 13 17 7 9 1012.7 - 0.0
17/03:00am 13.7 11.4 11.7 88 1.1 ESE 15 17 8 9 1013.0 1012.7 0.0
17/02:30am 13.8 11.5 11.8 88 1.1 ESE 15 19 8 10 1013.1 - 0.0
17/02:00am 13.9 11.2 11.8 87 1.1 ESE 17 20 9 11 1013.2 - 0.0
17/01:30am 14.2 11.2 11.9 86 1.2 ESE 19 22 10 12 1013.5 - 0.0
17/01:00am 14.2 11.6 11.9 86 1.2 ESE 17 20 9 11 1013.7 - 0.0
17/12:30am 14.4 11.8 12.1 86 1.3 ESE 17 20 9 11 1013.7 - 0.0
17/12:00am 14.7 12.1 12.0 84 1.5 SE 17 24 9 13 1014.2 1013.8 0.0
 
Date/Time
CDT
Temp
°C
App
Temp
°C
Dew
Point
°C
Rel
Hum
%
Delta-T
°C
Wind Press
QNH
hPa
Press
MSL
hPa
Rain since
9am
mm
Dir  Spd
km/h
Gust
km/h
Spd
kts
Gust
kts
16/11:30pm 14.8 11.8 11.9 83 1.6 ESE 19 26 10 14 1014.2 - 0.0
16/11:00pm 15.1 12.5 11.9 81 1.7 ESE 17 22 9 12 1014.5 - 0.0
16/10:30pm 15.4 13.1 11.6 78 2.1 ESE 15 20 8 11 1014.9 - 0.0
16/10:00pm 15.8 13.1 11.6 76 2.3 ESE 17 22 9 12 1014.6 - 0.0
16/09:30pm 16.3 13.5 11.5 73 2.6 ESE 17 24 9 13 1014.0 - 0.0
16/09:00pm 17.0 15.3 12.3 74 2.6 E 13 17 7 9 1014.0 1013.7 0.0
16/08:30pm 17.7 16.0 13.6 77 2.3 ENE 15 19 8 10 1014.2 - 0.0
16/08:00pm 18.4 16.5 13.0 71 3.1 ENE 15 20 8 11 1014.0 - 0.0
16/07:30pm 19.0 16.2 12.7 67 3.6 NE 19 22 10 12 1013.7 - 0.0
16/07:00pm 19.6 17.4 12.1 62 4.2 NNE 15 19 8 10 1013.9 - 0.0
16/06:30pm 20.7 17.9 11.3 55 5.2 NE 17 22 9 12 1013.7 - 0.0
16/06:00pm 20.6 18.1 11.2 55 5.2 NNE 15 20 8 11 1013.7 1013.4 0.0
16/05:30pm 21.2 19.3 11.8 55 5.3 NNE 13 20 7 11 1013.7 - 0.0
16/05:00pm 21.2 19.1 12.3 57 5.0 NNE 15 19 8 10 1013.8 - 0.0
16/04:30pm 22.2 20.0 12.2 53 5.7 N 15 20 8 11 1013.6 - 0.0
16/04:00pm 21.6 19.3 11.6 53 5.6 N 15 20 8 11 1013.8 - 0.0
16/03:30pm 22.1 20.3 12.1 53 5.7 NNW 13 17 7 9 1014.3 - 0.0
16/03:00pm 21.7 19.4 11.7 53 5.6 NNW 15 20 8 11 1014.6 1014.2 0.0
16/02:30pm 21.5 19.2 11.8 54 5.5 WNW 15 20 8 11 1014.9 - 0.0
16/02:00pm 21.6 19.6 12.7 57 5.1 NW 15 20 8 11 1015.2 - 0.0
16/01:30pm 20.2 17.7 12.2 60 4.5 N 17 20 9 11 1015.6 - 0.0
16/01:00pm 19.5 17.0 13.4 68 3.5 N 19 22 10 12 1015.8 - 0.0
16/12:30pm 19.9 17.7 14.3 70 3.3 NW 19 24 10 13 1016.4 - 0.0
16/12:00pm 18.5 16.0 13.4 72 2.9 WNW 19 24 10 13 1016.8 1016.5 0.0
16/11:30am 18.6 16.9 12.6 68 3.4 NW 13 17 7 9 1016.9 - 0.0
16/11:00am 20.0 17.4 10.7 55 5.1 ESE 15 20 8 11 1016.9 - 0.0
16/10:30am 18.7 16.2 11.0 61 4.2 ESE 15 26 8 14 1016.8 - 0.0
16/10:00am 18.5 15.5 10.8 61 4.2 ESE 17 22 9 12 1016.6 - 0.0
16/09:30am 17.3 14.4 12.4 73 2.7 E 19 26 10 14 1016.9 - 0.0
16/09:00am 16.5 14.4 12.5 77 2.2 ESE 15 20 8 11 1017.0 1016.7 0.0
16/08:30am 15.4 13.4 12.7 84 1.5 ESE 15 20 8 11 1016.9 - 0.0
16/08:00am 15.3 13.7 12.8 85 1.4 ESE 13 20 7 11 1016.9 - 0.0
16/07:30am 14.4 12.0 12.8 90 0.9 ESE 17 22 9 12 1016.3 - 0.0
16/07:00am 14.5 12.3 12.0 85 1.4 SE 15 19 8 10 1015.8 - 0.0
16/06:30am 14.8 13.3 11.9 83 1.6 SE 11 15 6 8 1015.5 - 0.0
16/06:00am 15.1 13.0 11.3 78 2.0 SE 13 19 7 10 1015.3 1014.9 0.0
16/05:30am 15.0 13.2 12.1 83 1.6 SE 13 17 7 9 1015.2 - 0.0
16/05:00am 15.0 13.8 11.6 80 1.8 SSE 9 11 5 6 1015.4 - 0.0
16/04:30am 15.1 13.8 11.3 78 2.0 SE 9 11 5 6 1015.4 - 0.0
16/04:00am 15.1 14.2 11.3 78 2.0 SSE 7 13 4 7 1015.6 - 0.0
16/03:30am 15.1 13.5 11.5 79 1.9 SE 11 15 6 8 1015.5 - 0.0
16/03:00am 14.5 12.8 11.3 81 1.7 SSE 11 15 6 8 1015.6 1015.2 0.0
16/02:30am 14.6 13.0 11.6 82 1.6 SSE 11 15 6 8 1015.7 - 0.0

Other formats

Comma delimited format used in spreadsheet applications
http://www.bom.gov.au/fwo/IDS60801/IDS60801.95805.axf

JavaScript Object Notation format (JSON) in row-major order
http://www.bom.gov.au/fwo/IDS60801/IDS60801.95805.json

Data quality

Most of these data are generated automatically and are frequently updated. Quality checks on data are not normally performed. It is possible for incorrect values to appear. Refer to information at About Latest Weather Observations and please check the disclaimer before using these data.